Time;durP1;ratioP1;P1;durP2;ratioP2;P2;SDS_P1;SDS_P2;PMS_P1;PMS_P2;Temp;Humidity;BMP_temperature;BMP_pressure;BME280_temperature;BME280_humidity;BME280_pressure;Samples;Min_cycle;Max_cycle;Signal;HPM_P1;HPM_P2
2022/05/15 00:00:40;;;;;;;7.80;4.10;;;;;;;;;;5024331;28;20497;-70
2022/05/15 00:03:12;;;;;;;7.82;3.85;;;;;;;;;;5021106;28;20195;-70
2022/05/15 00:05:43;;;;;;;6.43;4.05;;;;;;;;;;5027012;28;20569;-73
2022/05/15 00:08:11;;;;;;;9.93;4.25;;;;;;;;;;5028157;28;20069;-69
2022/05/15 00:10:40;;;;;;;8.52;4.53;;;;;;;;;;5020039;28;20075;-69
2022/05/15 00:13:09;;;;;;;7.82;4.53;;;;;;;;;;5028702;28;20135;-70
2022/05/15 00:15:38;;;;;;;7.47;4.15;;;;;;;;;;5023609;28;20046;-72
2022/05/15 00:18:07;;;;;;;11.18;4.90;;;;;;;;;;5022486;28;20140;-69
2022/05/15 00:20:37;;;;;;;9.27;4.65;;;;;;;;;;5019079;28;20121;-72
2022/05/15 00:23:07;;;;;;;7.80;4.07;;;;;;;;;;5027697;28;20123;-68
2022/05/15 00:25:35;;;;;;;10.25;4.50;;;;;;;;;;5029567;28;20057;-68
2022/05/15 00:28:03;;;;;;;7.05;4.22;;;;;;;;;;5027364;28;20141;-70
2022/05/15 00:30:32;;;;;;;7.63;4.90;;;;;;;;;;5025113;28;20042;-69
2022/05/15 00:33:01;;;;;;;7.90;4.30;;;;;;;;;;5019076;28;20060;-69
2022/05/15 00:35:29;;;;;;;8.48;4.35;;;;;;;;;;5012794;28;20167;-70
2022/05/15 00:37:57;;;;;;;7.03;3.95;;;;;;;;;;5024648;28;20096;-69
2022/05/15 00:40:27;;;;;;;7.97;4.90;;;;;;;;;;5026498;28;20046;-68
2022/05/15 00:42:55;;;;;;;7.38;4.90;;;;;;;;;;5025091;28;20105;-69
2022/05/15 00:45:24;;;;;;;10.95;4.55;;;;;;;;;;5027203;28;20129;-70
2022/05/15 00:47:53;;;;;;;7.32;4.25;;;;;;;;;;5028304;28;20493;-70
2022/05/15 00:50:23;;;;;;;9.55;4.15;;;;;;;;;;5014066;28;20048;-70
2022/05/15 00:52:53;;;;;;;6.13;4.13;;;;;;;;;;5021638;28;20131;-68
2022/05/15 00:55:22;;;;;;;6.95;4.70;;;;;;;;;;5028699;28;20123;-68
2022/05/15 00:57:54;;;;;;;8.38;4.80;;;;;;;;;;5025126;28;20125;-70
2022/05/15 01:00:24;;;;;;;7.28;4.43;;;;;;;;;;5026050;28;20076;-68
2022/05/15 01:02:53;;;;;;;9.10;4.70;;;;;;;;;;5028442;28;20569;-68
2022/05/15 01:05:22;;;;;;;7.25;4.65;;;;;;;;;;5025540;28;20140;-68
2022/05/15 01:07:50;;;;;;;6.78;4.45;;;;;;;;;;5026114;28;20041;-69
2022/05/15 01:10:19;;;;;;;9.45;4.80;;;;;;;;;;5014469;28;20621;-71
2022/05/15 01:12:48;;;;;;;9.20;5.22;;;;;;;;;;5027251;28;20088;-72
2022/05/15 01:15:19;;;;;;;7.78;5.32;;;;;;;;;;5022954;28;20137;-67
2022/05/15 01:17:48;;;;;;;8.07;5.05;;;;;;;;;;5026688;28;20145;-67
2022/05/15 01:20:20;;;;;;;7.07;4.82;;;;;;;;;;5026395;28;20136;-68
2022/05/15 01:22:56;;;;;;;7.60;4.88;;;;;;;;;;5027746;28;20137;-74
2022/05/15 01:25:25;;;;;;;8.48;4.45;;;;;;;;;;5022704;28;20132;-72
2022/05/15 01:27:55;;;;;;;9.15;4.88;;;;;;;;;;5031929;28;20076;-70
2022/05/15 01:30:24;;;;;;;8.90;4.95;;;;;;;;;;5030333;28;20119;-72
2022/05/15 01:32:52;;;;;;;9.13;4.82;;;;;;;;;;5031703;28;20128;-69
2022/05/15 01:35:20;;;;;;;5.50;3.63;;;;;;;;;;5006450;28;20060;-72
2022/05/15 01:38:09;;;;;;;7.22;4.18;;;;;;;;;;5030136;28;20100;-72
2022/05/15 01:40:38;;;;;;;7.72;4.63;;;;;;;;;;5017493;28;20081;-74
2022/05/15 01:43:06;;;;;;;6.50;4.22;;;;;;;;;;5027088;28;20073;-69
2022/05/15 01:45:35;;;;;;;8.85;4.43;;;;;;;;;;5024827;28;20130;-71
2022/05/15 01:48:03;;;;;;;8.73;4.55;;;;;;;;;;5023338;28;20121;-72
2022/05/15 01:50:32;;;;;;;11.25;4.65;;;;;;;;;;5023002;28;20136;-69
2022/05/15 01:53:20;;;;;;;7.55;4.38;;;;;;;;;;5030556;28;20136;-69
2022/05/15 01:55:48;;;;;;;8.68;4.45;;;;;;;;;;5029290;28;20045;-68
2022/05/15 01:58:16;;;;;;;9.25;4.82;;;;;;;;;;5025852;28;20129;-68
2022/05/15 02:00:45;;;;;;;8.82;4.60;;;;;;;;;;5027660;28;20141;-69
2022/05/15 02:03:13;;;;;;;8.43;4.55;;;;;;;;;;5031780;28;20132;-71
2022/05/15 02:05:42;;;;;;;10.38;4.90;;;;;;;;;;5028367;28;20092;-69
2022/05/15 02:08:10;;;;;;;8.60;4.70;;;;;;;;;;5030551;28;20053;-69
2022/05/15 02:10:40;;;;;;;7.70;4.32;;;;;;;;;;5030008;28;20077;-69
2022/05/15 02:13:17;;;;;;;8.30;4.40;;;;;;;;;;5026051;28;20041;-71
2022/05/15 02:15:45;;;;;;;5.50;3.85;;;;;;;;;;5024928;28;20050;-69
2022/05/15 02:18:23;;;;;;;8.82;4.68;;;;;;;;;;5019789;28;20051;-69
2022/05/15 02:20:52;;;;;;;8.65;4.55;;;;;;;;;;5022662;28;20129;-69
2022/05/15 02:23:20;;;;;;;8.40;4.72;;;;;;;;;;5031233;28;20144;-72
2022/05/15 02:25:50;;;;;;;5.32;3.97;;;;;;;;;;5018285;28;20046;-69
2022/05/15 02:28:25;;;;;;;5.85;4.03;;;;;;;;;;5023261;28;20160;-69
2022/05/15 02:30:53;;;;;;;7.53;4.70;;;;;;;;;;5027292;28;20662;-71
2022/05/15 02:33:41;;;;;;;6.60;4.53;;;;;;;;;;5030422;28;20136;-68
2022/05/15 02:36:09;;;;;;;10.23;4.93;;;;;;;;;;5018236;28;21871;-71
2022/05/15 02:38:38;;;;;;;8.98;5.05;;;;;;;;;;5026453;28;20134;-72
2022/05/15 02:41:08;;;;;;;8.75;4.65;;;;;;;;;;5015967;28;20047;-68
2022/05/15 02:43:39;;;;;;;9.13;5.38;;;;;;;;;;5025699;28;20133;-69
2022/05/15 02:46:07;;;;;;;9.38;5.60;;;;;;;;;;5024203;28;20085;-70
2022/05/15 02:51:22;;;;;;;7.95;4.85;;;;;;;;;;5031198;28;20187;-69
2022/05/15 02:53:50;;;;;;;8.88;5.30;;;;;;;;;;5029650;28;20060;-70
2022/05/15 02:59:37;;;;;;;11.43;5.00;;;;;;;;;;5024784;28;20057;-69
2022/05/15 03:05:38;;;;;;;8.73;4.65;;;;;;;;;;5026535;28;20099;-69
2022/05/15 03:08:07;;;;;;;6.75;4.47;;;;;;;;;;5025535;28;20184;-70
2022/05/15 03:10:35;;;;;;;8.23;5.15;;;;;;;;;;5021102;28;20128;-72
2022/05/15 03:13:05;;;;;;;8.20;5.22;;;;;;;;;;5026600;28;20042;-68
2022/05/15 03:15:33;;;;;;;8.73;5.03;;;;;;;;;;5024628;28;20481;-68
2022/05/15 03:18:01;;;;;;;8.32;4.70;;;;;;;;;;5024211;28;20129;-69
2022/05/15 03:20:30;;;;;;;7.05;5.03;;;;;;;;;;5014152;28;20180;-68
2022/05/15 03:23:20;;;;;;;10.45;5.22;;;;;;;;;;5022437;28;20506;-68
2022/05/15 03:25:48;;;;;;;9.02;5.20;;;;;;;;;;5013254;28;20137;-68
2022/05/15 03:28:41;;;;;;;8.75;4.80;;;;;;;;;;5019026;28;20234;-69
2022/05/15 03:31:10;;;;;;;10.13;5.60;;;;;;;;;;5029986;28;20049;-68
2022/05/15 03:33:48;;;;;;;10.15;5.28;;;;;;;;;;5016383;28;20472;-68
2022/05/15 03:36:16;;;;;;;8.07;4.68;;;;;;;;;;5021779;28;20052;-68
2022/05/15 03:38:46;;;;;;;12.38;5.55;;;;;;;;;;5030001;28;20049;-68
2022/05/15 03:41:14;;;;;;;10.30;4.95;;;;;;;;;;5017296;28;20140;-69
2022/05/15 03:43:43;;;;;;;11.13;5.20;;;;;;;;;;5025145;28;20046;-69
2022/05/15 03:46:13;;;;;;;12.25;5.47;;;;;;;;;;5025815;28;20131;-68
2022/05/15 03:48:41;;;;;;;9.02;4.65;;;;;;;;;;5024564;28;20111;-67
2022/05/15 03:51:09;;;;;;;8.55;5.15;;;;;;;;;;5023585;28;20085;-68
2022/05/15 03:53:38;;;;;;;6.95;4.82;;;;;;;;;;5031210;28;20133;-70
2022/05/15 03:56:06;;;;;;;10.82;4.80;;;;;;;;;;5018543;28;20068;-69
2022/05/15 03:58:36;;;;;;;11.07;5.70;;;;;;;;;;5025571;28;20046;-67
2022/05/15 04:01:05;;;;;;;8.70;4.85;;;;;;;;;;5021349;28;20069;-68
2022/05/15 04:03:35;;;;;;;7.60;4.60;;;;;;;;;;5017656;28;20054;-68
2022/05/15 04:06:04;;;;;;;7.72;5.50;;;;;;;;;;5019341;28;20045;-69
2022/05/15 04:08:32;;;;;;;7.45;4.80;;;;;;;;;;5023503;28;20428;-69
2022/05/15 04:11:00;;;;;;;8.95;5.18;;;;;;;;;;5024933;28;20160;-68
2022/05/15 04:13:28;;;;;;;6.97;4.70;;;;;;;;;;5025849;28;20072;-72
2022/05/15 04:15:57;;;;;;;5.70;4.70;;;;;;;;;;5024074;28;20119;-68
2022/05/15 04:18:25;;;;;;;7.80;5.25;;;;;;;;;;5018592;28;20080;-69
2022/05/15 04:20:55;;;;;;;6.75;4.78;;;;;;;;;;5024676;28;20124;-68
2022/05/15 04:23:36;;;;;;;11.27;5.65;;;;;;;;;;5021794;28;20129;-68
2022/05/15 04:26:04;;;;;;;10.95;4.63;;;;;;;;;;5025464;28;20121;-70
2022/05/15 04:31:56;;;;;;;9.80;4.63;;;;;;;;;;5022053;28;20040;-72
2022/05/15 04:34:25;;;;;;;6.82;4.53;;;;;;;;;;5036054;28;20118;-71
2022/05/15 04:36:55;;;;;;;7.35;4.10;;;;;;;;;;5016060;28;20141;-68
2022/05/15 04:39:23;;;;;;;8.95;4.88;;;;;;;;;;5029102;28;20048;-68
2022/05/15 04:41:52;;;;;;;8.27;4.85;;;;;;;;;;5025071;28;20140;-68
2022/05/15 04:44:20;;;;;;;7.60;4.38;;;;;;;;;;5024884;28;20052;-68
2022/05/15 04:46:48;;;;;;;6.32;4.43;;;;;;;;;;5023442;28;20502;-68
2022/05/15 04:49:16;;;;;;;5.72;4.15;;;;;;;;;;5025462;28;20211;-68
2022/05/15 04:51:45;;;;;;;8.50;4.28;;;;;;;;;;5020485;28;20713;-72
2022/05/15 04:54:14;;;;;;;9.35;4.50;;;;;;;;;;5033069;28;20132;-68
2022/05/15 04:56:43;;;;;;;7.60;4.50;;;;;;;;;;5020857;28;20076;-69
2022/05/15 04:59:11;;;;;;;8.02;4.30;;;;;;;;;;5030356;28;20144;-68
2022/05/15 05:01:41;;;;;;;4.95;4.22;;;;;;;;;;5030611;28;20479;-68
2022/05/15 05:04:09;;;;;;;7.18;4.35;;;;;;;;;;5024866;28;20081;-67
2022/05/15 05:06:37;;;;;;;8.55;4.50;;;;;;;;;;5031849;28;20056;-69
2022/05/15 05:09:05;;;;;;;6.45;3.95;;;;;;;;;;5017025;28;20141;-69
2022/05/15 05:11:35;;;;;;;7.95;4.45;;;;;;;;;;5029652;28;20092;-69
2022/05/15 05:14:03;;;;;;;8.18;4.63;;;;;;;;;;5031026;28;20048;-68
2022/05/15 05:16:33;;;;;;;10.90;5.00;;;;;;;;;;5024139;28;20515;-68
2022/05/15 05:19:01;;;;;;;8.60;4.30;;;;;;;;;;5028858;28;20045;-68
2022/05/15 05:21:30;;;;;;;6.22;4.40;;;;;;;;;;5018424;28;20046;-70
2022/05/15 05:23:58;;;;;;;5.55;4.03;;;;;;;;;;5031552;28;20052;-68
2022/05/15 05:26:26;;;;;;;6.57;4.07;;;;;;;;;;5027098;28;20076;-69
2022/05/15 05:28:56;;;;;;;8.38;4.80;;;;;;;;;;5030773;28;20057;-70
2022/05/15 05:31:24;;;;;;;5.60;3.95;;;;;;;;;;5028111;28;20063;-68
2022/05/15 05:33:52;;;;;;;10.23;4.13;;;;;;;;;;5032211;28;20099;-74
2022/05/15 05:36:21;;;;;;;7.72;4.85;;;;;;;;;;5025132;28;20417;-68
2022/05/15 05:38:49;;;;;;;6.78;4.10;;;;;;;;;;5029234;28;20074;-69
2022/05/15 05:41:17;;;;;;;7.93;5.40;;;;;;;;;;5022829;28;20054;-68
2022/05/15 05:43:45;;;;;;;8.50;4.63;;;;;;;;;;5023786;28;20073;-68
2022/05/15 05:46:15;;;;;;;8.10;5.25;;;;;;;;;;5029383;28;20073;-67
2022/05/15 05:48:45;;;;;;;9.30;4.97;;;;;;;;;;5031844;28;20052;-68
2022/05/15 05:51:14;;;;;;;7.25;4.28;;;;;;;;;;5019199;28;20053;-69
2022/05/15 05:53:43;;;;;;;14.93;7.45;;;;;;;;;;5028741;28;20556;-74
2022/05/15 05:56:11;;;;;;;10.55;6.47;;;;;;;;;;5026248;28;20056;-71
2022/05/15 05:58:40;;;;;;;14.68;8.45;;;;;;;;;;5029382;28;20077;-72
2022/05/15 06:01:08;;;;;;;15.20;8.10;;;;;;;;;;5019985;28;20121;-68
2022/05/15 06:06:20;;;;;;;12.85;7.22;;;;;;;;;;5006483;28;20136;-67
2022/05/15 06:08:49;;;;;;;10.75;6.15;;;;;;;;;;5029070;28;20128;-68
2022/05/15 06:11:17;;;;;;;11.93;7.07;;;;;;;;;;5024689;28;20045;-70
2022/05/15 06:13:45;;;;;;;10.30;6.50;;;;;;;;;;5026832;28;20163;-68
2022/05/15 06:16:14;;;;;;;12.45;7.45;;;;;;;;;;5026240;28;20141;-68
2022/05/15 06:18:44;;;;;;;13.15;6.72;;;;;;;;;;5026946;28;20081;-68
2022/05/15 06:21:12;;;;;;;11.70;7.43;;;;;;;;;;5031947;28;20401;-68
2022/05/15 06:23:43;;;;;;;14.55;7.85;;;;;;;;;;5030104;28;20102;-68
2022/05/15 06:26:12;;;;;;;14.48;7.43;;;;;;;;;;5031951;28;20099;-71
2022/05/15 06:28:40;;;;;;;9.30;6.57;;;;;;;;;;5026551;28;20100;-70
2022/05/15 06:31:08;;;;;;;12.80;6.40;;;;;;;;;;5027284;28;20140;-68
2022/05/15 06:33:37;;;;;;;9.93;5.72;;;;;;;;;;5020950;28;20049;-71
2022/05/15 06:36:09;;;;;;;11.05;6.78;;;;;;;;;;5019497;28;20121;-69
2022/05/15 06:38:40;;;;;;;11.98;6.00;;;;;;;;;;5024709;28;20045;-74
2022/05/15 06:41:09;;;;;;;8.85;5.40;;;;;;;;;;5022891;28;20041;-68
2022/05/15 06:43:37;;;;;;;10.18;5.70;;;;;;;;;;5028454;28;20050;-70
2022/05/15 06:46:06;;;;;;;8.65;4.97;;;;;;;;;;5028757;28;20076;-70
2022/05/15 06:48:35;;;;;;;8.52;5.53;;;;;;;;;;5023835;28;20509;-69
2022/05/15 06:51:06;;;;;;;7.72;4.45;;;;;;;;;;5030740;28;20054;-69
2022/05/15 06:53:36;;;;;;;11.80;5.20;;;;;;;;;;5028986;28;20095;-69
2022/05/15 06:58:53;;;;;;;7.05;4.70;;;;;;;;;;5029508;28;20092;-69
2022/05/15 07:01:21;;;;;;;7.65;4.97;;;;;;;;;;5028216;28;20045;-68
2022/05/15 07:03:50;;;;;;;7.03;4.65;;;;;;;;;;5016192;28;20306;-69
2022/05/15 07:06:20;;;;;;;8.57;5.00;;;;;;;;;;5026674;28;20245;-70
2022/05/15 07:08:50;;;;;;;7.55;4.40;;;;;;;;;;5019995;28;20065;-69
2022/05/15 07:11:19;;;;;;;7.47;4.25;;;;;;;;;;5025014;28;20057;-71
2022/05/15 07:13:47;;;;;;;9.30;4.10;;;;;;;;;;5024039;28;20041;-70
2022/05/15 07:16:15;;;;;;;6.28;4.10;;;;;;;;;;5024008;28;20056;-73
2022/05/15 07:18:44;;;;;;;5.75;3.80;;;;;;;;;;5020918;28;20105;-69
2022/05/15 07:21:14;;;;;;;8.30;4.35;;;;;;;;;;5026135;28;20095;-71
2022/05/15 07:23:43;;;;;;;6.15;3.60;;;;;;;;;;5021160;28;20082;-70
2022/05/15 07:26:13;;;;;;;4.30;3.30;;;;;;;;;;5020996;28;20107;-69
2022/05/15 07:28:41;;;;;;;5.72;3.72;;;;;;;;;;5023048;28;20115;-69
2022/05/15 07:31:09;;;;;;;8.20;3.70;;;;;;;;;;5024669;28;20103;-69
2022/05/15 07:33:37;;;;;;;6.47;4.20;;;;;;;;;;5021159;28;20144;-69
2022/05/15 07:36:06;;;;;;;5.32;3.97;;;;;;;;;;5000085;28;20520;-74
2022/05/15 07:38:34;;;;;;;7.22;3.53;;;;;;;;;;5025173;28;20280;-69
2022/05/15 07:41:05;;;;;;;5.45;2.75;;;;;;;;;;5029203;28;20135;-71
2022/05/15 07:43:35;;;;;;;3.67;2.45;;;;;;;;;;5021540;28;20045;-69
2022/05/15 07:46:06;;;;;;;6.85;2.60;;;;;;;;;;5023569;28;20077;-69
2022/05/15 07:48:35;;;;;;;6.57;2.92;;;;;;;;;;5018356;28;20061;-69
2022/05/15 07:51:06;;;;;;;4.65;2.90;;;;;;;;;;5035080;28;20083;-70
2022/05/15 07:53:34;;;;;;;6.00;2.88;;;;;;;;;;5023187;28;20564;-69
2022/05/15 07:56:09;;;;;;;8.88;3.78;;;;;;;;;;5021219;28;20604;-71
2022/05/15 07:58:39;;;;;;;5.63;2.53;;;;;;;;;;5023680;28;20049;-70
2022/05/15 08:01:08;;;;;;;7.13;2.90;;;;;;;;;;5019367;28;20140;-70
2022/05/15 08:03:39;;;;;;;6.97;2.50;;;;;;;;;;5025828;28;20041;-71
2022/05/15 08:08:54;;;;;;;4.40;2.35;;;;;;;;;;5027021;28;20044;-68
2022/05/15 08:11:26;;;;;;;4.65;2.63;;;;;;;;;;5021186;28;20042;-72
2022/05/15 08:13:56;;;;;;;4.30;2.28;;;;;;;;;;5021034;28;20052;-70
2022/05/15 08:16:25;;;;;;;7.30;2.50;;;;;;;;;;5028175;28;20314;-69
2022/05/15 08:24:26;;;;;;;4.13;2.47;;;;;;;;;;5026975;28;20050;-72
2022/05/15 08:26:56;;;;;;;5.63;3.03;;;;;;;;;;5028972;28;20095;-70
2022/05/15 08:29:26;;;;;;;3.50;2.55;;;;;;;;;;5025527;28;20474;-70
2022/05/15 08:31:55;;;;;;;6.13;2.95;;;;;;;;;;5029151;28;20115;-69
2022/05/15 08:34:23;;;;;;;6.72;3.03;;;;;;;;;;5022460;28;20140;-70
2022/05/15 08:36:53;;;;;;;3.70;2.53;;;;;;;;;;5019527;28;20087;-74
2022/05/15 08:39:22;;;;;;;4.05;2.63;;;;;;;;;;5018662;28;20185;-69
2022/05/15 08:41:54;;;;;;;3.88;2.30;;;;;;;;;;5023590;28;20060;-70
2022/05/15 08:44:29;;;;;;;3.17;2.00;;;;;;;;;;5017129;28;20041;-70
2022/05/15 08:46:57;;;;;;;;;;;;;;;;;;5028183;28;20323;-70
2022/05/15 08:49:30;;;;;;;3.80;2.17;;;;;;;;;;5025300;28;19921;-73
2022/05/15 08:52:02;;;;;;;4.57;1.92;;;;;;;;;;5032225;28;20129;-72
2022/05/15 08:54:30;;;;;;;3.50;2.20;;;;;;;;;;5030339;28;20477;-75
2022/05/15 08:57:00;;;;;;;5.20;2.05;;;;;;;;;;5030677;28;20049;-70
2022/05/15 08:59:31;;;;;;;4.80;2.20;;;;;;;;;;5020290;28;20049;-69
2022/05/15 09:02:01;;;;;;;3.17;1.92;;;;;;;;;;5021189;28;20383;-70
2022/05/15 09:04:32;;;;;;;4.30;2.15;;;;;;;;;;5023960;28;20052;-70
2022/05/15 09:07:08;;;;;;;4.47;1.50;;;;;;;;;;5031472;28;20460;-72
2022/05/15 09:09:45;;;;;;;3.38;1.60;;;;;;;;;;5015680;28;20470;-71
2022/05/15 09:12:16;;;;;;;2.00;1.63;;;;;;;;;;5018202;28;20072;-72
2022/05/15 09:15:04;;;;;;;1.67;1.40;;;;;;;;;;5020350;28;20144;-73
2022/05/15 09:17:36;;;;;;;3.40;1.60;;;;;;;;;;5013900;28;20045;-69
2022/05/15 09:20:08;;;;;;;7.05;1.70;;;;;;;;;;5019364;28;20489;-74
2022/05/15 09:22:39;;;;;;;2.40;1.90;;;;;;;;;;5020021;28;20089;-71
2022/05/15 09:25:12;;;;;;;2.20;1.45;;;;;;;;;;5017481;28;20053;-74
2022/05/15 09:27:57;;;;;;;2.85;1.50;;;;;;;;;;5013709;28;20057;-71
2022/05/15 09:30:25;;;;;;;1.67;1.10;;;;;;;;;;5024995;28;20068;-72
2022/05/15 09:32:57;;;;;;;2.28;1.70;;;;;;;;;;5022152;28;20780;-68
2022/05/15 09:35:31;;;;;;;2.80;1.20;;;;;;;;;;5020913;28;20123;-72
2022/05/15 09:43:32;;;;;;;3.50;1.60;;;;;;;;;;5030254;28;20129;-68
2022/05/15 09:46:07;;;;;;;3.17;1.45;;;;;;;;;;5013312;28;20045;-68
2022/05/15 09:48:38;;;;;;;1.40;1.30;;;;;;;;;;5020837;28;20464;-66
2022/05/15 09:51:13;;;;;;;2.92;1.50;;;;;;;;;;5026385;28;20156;-77
2022/05/15 09:53:44;;;;;;;3.50;1.60;;;;;;;;;;5029889;28;20053;-76
2022/05/15 09:56:14;;;;;;;1.73;1.38;;;;;;;;;;5023132;28;20100;-73
2022/05/15 09:58:45;;;;;;;2.45;1.30;;;;;;;;;;5019716;28;20103;-76
2022/05/15 10:01:33;;;;;;;1.33;1.10;;;;;;;;;;5019976;28;20116;-74
2022/05/15 10:04:03;;;;;;;1.70;1.30;;;;;;;;;;5027253;28;20148;-73
2022/05/15 10:06:37;;;;;;;3.75;1.67;;;;;;;;;;5027816;28;20042;-74
2022/05/15 10:09:10;;;;;;;2.22;1.20;;;;;;;;;;5028860;28;20402;-73
2022/05/15 10:11:40;;;;;;;3.88;1.35;;;;;;;;;;5027991;28;20049;-74
2022/05/15 10:14:13;;;;;;;3.47;1.30;;;;;;;;;;5036066;28;20111;-71
2022/05/15 10:16:45;;;;;;;1.75;1.17;;;;;;;;;;5036007;28;20081;-71
2022/05/15 10:19:17;;;;;;;2.05;1.10;;;;;;;;;;5028281;28;20053;-72
2022/05/15 10:21:50;;;;;;;2.03;1.50;;;;;;;;;;5021674;28;20038;-70
2022/05/15 10:24:21;;;;;;;1.40;1.10;;;;;;;;;;5029943;28;20049;-70
2022/05/15 10:26:53;;;;;;;4.40;1.27;;;;;;;;;;5019222;28;20402;-70
2022/05/15 10:29:27;;;;;;;3.55;1.55;;;;;;;;;;5022012;28;20041;-71
2022/05/15 10:31:59;;;;;;;4.50;1.43;;;;;;;;;;5029284;28;20057;-72
2022/05/15 10:34:29;;;;;;;3.95;1.23;;;;;;;;;;5031789;28;20136;-72
2022/05/15 10:37:08;;;;;;;1.67;1.20;;;;;;;;;;5025659;28;20092;-74
2022/05/15 10:39:41;;;;;;;1.98;1.20;;;;;;;;;;5027883;28;20080;-76
2022/05/15 10:42:15;;;;;;;3.03;1.52;;;;;;;;;;5016327;28;20059;-78
2022/05/15 10:44:44;;;;;;;;;;;;;;;;;;5029650;28;20083;-79
2022/05/15 10:47:14;;;;;;;3.03;1.27;;;;;;;;;;5037073;28;19978;-77
2022/05/15 10:49:57;;;;;;;2.38;1.10;;;;;;;;;;5024732;28;20107;-77
2022/05/15 10:52:36;;;;;;;3.05;1.20;;;;;;;;;;5021527;28;20127;-77
2022/05/15 10:58:02;;;;;;;2.35;1.63;;;;;;;;;;5022351;28;20049;-79
2022/05/15 11:00:37;;;;;;;1.45;1.17;;;;;;;;;;5030091;28;20045;-82
2022/05/15 11:03:19;;;;;;;3.10;1.20;;;;;;;;;;5029554;28;20045;-80
2022/05/15 11:05:54;;;;;;;3.17;1.30;;;;;;;;;;5021228;28;20052;-81
2022/05/15 11:08:30;;;;;;;2.40;1.30;;;;;;;;;;5031046;28;20065;-81
2022/05/15 11:11:02;;;;;;;3.55;1.20;;;;;;;;;;5026548;28;20045;-79
2022/05/15 11:13:38;;;;;;;2.33;1.55;;;;;;;;;;5030899;28;20441;-79
2022/05/15 11:16:12;;;;;;;3.35;1.20;;;;;;;;;;5029633;28;20551;-79
2022/05/15 11:18:53;;;;;;;2.63;1.10;;;;;;;;;;5028362;28;20420;-76
2022/05/15 11:21:26;;;;;;;2.28;1.33;;;;;;;;;;5019560;28;20067;-77
2022/05/15 11:23:59;;;;;;;5.60;1.23;;;;;;;;;;5019340;28;20051;-80
2022/05/15 11:26:30;;;;;;;2.83;1.33;;;;;;;;;;5020858;28;20053;-79
2022/05/15 11:29:00;;;;;;;2.35;1.67;;;;;;;;;;5006909;28;20080;-78
2022/05/15 11:31:32;;;;;;;2.83;1.52;;;;;;;;;;5026650;28;20053;-79
2022/05/15 11:34:03;;;;;;;3.40;1.98;;;;;;;;;;5036760;28;20409;-79
2022/05/15 11:36:35;;;;;;;3.15;1.23;;;;;;;;;;5014974;28;20041;-79
2022/05/15 11:39:07;;;;;;;1.85;1.45;;;;;;;;;;5025662;28;20497;-78
2022/05/15 11:41:41;;;;;;;2.63;1.45;;;;;;;;;;5022727;28;20115;-79
2022/05/15 11:44:12;;;;;;;163.95;92.05;;;;;;;;;;5032303;28;20041;-80
2022/05/15 11:46:59;;;;;;;17.60;12.65;;;;;;;;;;5029126;28;20054;-80
2022/05/15 11:49:32;;;;;;;124.53;84.20;;;;;;;;;;5029207;28;20489;-78
2022/05/15 11:52:14;;;;;;;10.18;5.78;;;;;;;;;;5022907;28;20049;-76
2022/05/15 11:54:47;;;;;;;7.28;3.92;;;;;;;;;;5021273;28;20104;-80
2022/05/15 11:57:31;;;;;;;4.30;3.13;;;;;;;;;;5029424;28;20108;-80
2022/05/15 12:00:02;;;;;;;24.58;20.90;;;;;;;;;;5029473;28;20119;-80
2022/05/15 12:02:43;;;;;;;2.67;2.28;;;;;;;;;;5032202;28;20099;-79
2022/05/15 12:05:24;;;;;;;37.15;25.33;;;;;;;;;;5032014;28;20084;-79
2022/05/15 12:07:54;;;;;;;4.65;3.30;;;;;;;;;;5023469;28;20531;-76
2022/05/15 12:10:44;;;;;;;4.28;1.92;;;;;;;;;;5028688;28;20140;-79
2022/05/15 12:13:15;;;;;;;5.55;3.67;;;;;;;;;;5019784;28;20370;-78
2022/05/15 12:15:45;;;;;;;5.72;5.22;;;;;;;;;;5028565;28;20046;-77
2022/05/15 12:18:20;;;;;;;8.13;6.10;;;;;;;;;;5018410;28;20069;-79
2022/05/15 12:20:51;;;;;;;9.18;8.05;;;;;;;;;;5022628;28;20124;-79
2022/05/15 12:23:21;;;;;;;4.68;1.98;;;;;;;;;;5029721;28;20060;-77
2022/05/15 12:25:54;;;;;;;3.72;1.55;;;;;;;;;;5033385;28;20105;-78
2022/05/15 12:31:16;;;;;;;3.88;3.58;;;;;;;;;;5024739;28;20733;-77
2022/05/15 12:34:13;;;;;;;8.40;7.63;;;;;;;;;;5024329;28;20045;-79
2022/05/15 12:36:44;;;;;;;9.55;8.75;;;;;;;;;;5023807;28;20049;-80
2022/05/15 12:39:14;;;;;;;23.08;21.08;;;;;;;;;;5030857;28;20098;-79
2022/05/15 12:41:44;;;;;;;6.05;4.68;;;;;;;;;;5028829;28;21743;-78
2022/05/15 12:44:14;;;;;;;3.30;2.75;;;;;;;;;;5029025;28;20099;-77
2022/05/15 12:46:44;;;;;;;6.45;5.10;;;;;;;;;;5030469;28;20073;-79
2022/05/15 12:49:29;;;;;;;3.00;2.13;;;;;;;;;;5028877;28;20117;-79
2022/05/15 12:52:09;;;;;;;25.25;16.15;;;;;;;;;;5017010;28;20056;-79
2022/05/15 12:54:38;;;;;;;1.92;1.50;;;;;;;;;;5030433;28;20088;-76
2022/05/15 12:57:08;;;;;;;2.03;1.38;;;;;;;;;;5029214;28;20045;-74
2022/05/15 12:59:39;;;;;;;1.45;1.10;;;;;;;;;;4989805;28;20128;-75
2022/05/15 13:02:15;;;;;;;3.78;1.60;;;;;;;;;;5019452;28;20042;-74
2022/05/15 13:04:48;;;;;;;2.65;1.25;;;;;;;;;;5019632;28;20088;-74
2022/05/15 13:07:17;;;;;;;2.17;1.20;;;;;;;;;;5022908;28;20537;-73
2022/05/15 13:09:57;;;;;;;1.70;1.05;;;;;;;;;;5018920;28;20046;-74
2022/05/15 13:12:26;;;;;;;3.78;1.40;;;;;;;;;;5027357;28;20045;-75
2022/05/15 13:14:56;;;;;;;2.15;1.30;;;;;;;;;;5022511;28;20060;-74
2022/05/15 13:17:29;;;;;;;2.70;1.35;;;;;;;;;;5028793;28;20054;-74
2022/05/15 13:19:58;;;;;;;2.92;1.33;;;;;;;;;;5023935;28;20053;-74
2022/05/15 13:22:28;;;;;;;3.22;1.45;;;;;;;;;;5033630;28;20417;-74
2022/05/15 13:24:59;;;;;;;4.72;2.10;;;;;;;;;;5023406;28;20533;-75
2022/05/15 13:27:28;;;;;;;2.30;1.38;;;;;;;;;;5027473;28;20155;-76
2022/05/15 13:29:59;;;;;;;2.03;1.27;;;;;;;;;;5016499;28;20092;-74
2022/05/15 13:32:28;;;;;;;3.05;1.30;;;;;;;;;;5027050;28;20485;-75
2022/05/15 13:34:56;;;;;;;1.77;1.13;;;;;;;;;;5035580;28;20049;-74
2022/05/15 13:37:33;;;;;;;2.40;1.30;;;;;;;;;;5024157;28;20107;-74
2022/05/15 13:43:20;;;;;;;3.33;1.23;;;;;;;;;;5025581;28;20136;-74
2022/05/15 13:45:52;;;;;;;1.33;1.23;;;;;;;;;;5027682;28;20038;-74
2022/05/15 13:48:21;;;;;;;2.35;1.02;;;;;;;;;;5030322;28;20046;-73
2022/05/15 13:50:51;;;;;;;1.52;1.15;;;;;;;;;;5030963;28;20571;-74
2022/05/15 13:53:21;;;;;;;2.67;1.55;;;;;;;;;;5027786;28;20042;-74
2022/05/15 13:55:51;;;;;;;4.55;1.30;;;;;;;;;;5026554;28;20050;-75
2022/05/15 13:58:20;;;;;;;1.88;1.08;;;;;;;;;;5029440;28;20489;-74
2022/05/15 14:01:09;;;;;;;2.47;1.20;;;;;;;;;;5025410;28;20122;-74
2022/05/15 14:03:38;;;;;;;3.28;1.23;;;;;;;;;;5031431;28;20063;-74
2022/05/15 14:06:14;;;;;;;2.35;1.15;;;;;;;;;;5028272;28;20061;-74
2022/05/15 14:08:55;;;;;;;2.72;1.30;;;;;;;;;;5023039;28;20067;-75
2022/05/15 14:11:24;;;;;;;3.30;1.77;;;;;;;;;;5023634;28;20046;-74
2022/05/15 14:13:53;;;;;;;3.90;1.02;;;;;;;;;;5020953;28;20084;-74
2022/05/15 14:16:24;;;;;;;2.42;1.10;;;;;;;;;;5026997;28;20394;-74
2022/05/15 14:18:54;;;;;;;2.80;1.77;;;;;;;;;;5030385;28;20049;-74
2022/05/15 14:21:26;;;;;;;1.70;1.10;;;;;;;;;;5029701;28;20046;-74
2022/05/15 14:23:55;;;;;;;2.97;1.92;;;;;;;;;;5014922;28;20053;-74
2022/05/15 14:26:23;;;;;;;2.55;1.30;;;;;;;;;;5023307;28;20059;-74
2022/05/15 14:28:52;;;;;;;2.55;1.10;;;;;;;;;;5026226;28;20467;-74
2022/05/15 14:31:22;;;;;;;2.33;1.35;;;;;;;;;;5021514;28;20045;-74
2022/05/15 14:33:52;;;;;;;5.70;1.08;;;;;;;;;;5030941;28;20054;-74
2022/05/15 14:36:22;;;;;;;1.45;1.25;;;;;;;;;;5011800;28;20045;-74
2022/05/15 14:38:51;;;;;;;3.33;1.13;;;;;;;;;;5030279;28;20080;-74
2022/05/15 14:41:20;;;;;;;1.42;1.00;;;;;;;;;;5022695;28;20077;-74
2022/05/15 14:43:49;;;;;;;1.55;1.10;;;;;;;;;;5028390;28;20037;-73
2022/05/15 14:46:20;;;;;;;3.33;1.30;;;;;;;;;;5020862;28;20152;-74
2022/05/15 14:48:49;;;;;;;1.75;1.00;;;;;;;;;;5018245;28;20053;-75
2022/05/15 14:51:21;;;;;;;1.35;1.08;;;;;;;;;;5017297;28;20050;-73
2022/05/15 14:53:50;;;;;;;3.28;1.20;;;;;;;;;;5034667;28;20053;-74
2022/05/15 14:56:19;;;;;;;3.70;1.20;;;;;;;;;;5031937;28;20037;-74
2022/05/15 14:58:50;;;;;;;1.90;1.27;;;;;;;;;;5027358;28;20050;-74
2022/05/15 15:01:19;;;;;;;2.88;1.20;;;;;;;;;;5023978;28;20056;-74
2022/05/15 15:03:48;;;;;;;1.30;1.00;;;;;;;;;;5025421;28;20510;-74
2022/05/15 15:06:17;;;;;;;1.83;1.30;;;;;;;;;;5028621;28;20559;-74
2022/05/15 15:08:47;;;;;;;4.18;1.40;;;;;;;;;;5017418;28;20502;-73
2022/05/15 15:11:17;;;;;;;4.25;1.50;;;;;;;;;;5023288;28;20042;-73
2022/05/15 15:13:47;;;;;;;3.17;1.20;;;;;;;;;;5028228;28;20057;-74
2022/05/15 15:16:17;;;;;;;3.85;1.50;;;;;;;;;;5027238;28;20049;-73
2022/05/15 15:18:46;;;;;;;4.63;1.30;;;;;;;;;;5022315;28;20410;-73
2022/05/15 15:21:15;;;;;;;1.73;1.10;;;;;;;;;;5018435;28;20056;-73
2022/05/15 15:23:44;;;;;;;3.38;1.02;;;;;;;;;;5024819;28;20150;-75
2022/05/15 15:26:15;;;;;;;1.10;1.00;;;;;;;;;;5022228;28;20449;-73
2022/05/15 15:28:43;;;;;;;1.95;1.40;;;;;;;;;;5015631;28;20045;-74
2022/05/15 15:31:12;;;;;;;2.67;1.08;;;;;;;;;;5019542;28;20052;-73
2022/05/15 15:33:42;;;;;;;1.30;1.00;;;;;;;;;;5025965;28;20049;-73
2022/05/15 15:36:11;;;;;;;2.63;1.20;;;;;;;;;;5008253;28;20627;-74
2022/05/15 15:38:39;;;;;;;1.30;1.02;;;;;;;;;;5027312;28;20068;-73
2022/05/15 15:41:09;;;;;;;4.40;1.25;;;;;;;;;;5028207;28;20072;-74
2022/05/15 15:43:40;;;;;;;6.68;1.10;;;;;;;;;;5028273;28;20045;-74